Time;durP1;ratioP1;P1;durP2;ratioP2;P2;SDS_P1;SDS_P2;PMS_P1;PMS_P2;Temp;Humidity;BMP_temperature;BMP_pressure;BME280_temperature;BME280_humidity;BME280_pressure;Samples;Min_cycle;Max_cycle;Signal;HPM_P1;HPM_P2
2023/06/15 00:02:11;;;;;;;3.83;3.10;;;;;;;18.05;51.01;101607.22;5024751;28;20347;-74
2023/06/15 00:04:37;;;;;;;5.43;3.40;;;;;;;18.02;51.72;101604.78;5028955;28;20029;-75
2023/06/15 00:07:03;;;;;;;5.60;3.25;;;;;;;17.86;51.74;101603.16;5011005;28;20557;-77
2023/06/15 00:09:28;;;;;;;3.72;3.40;;;;;;;17.95;51.86;101607.03;5019084;28;20048;-76
2023/06/15 00:11:53;;;;;;;3.53;3.20;;;;;;;17.84;51.76;101598.81;5021989;28;20496;-75
2023/06/15 00:14:19;;;;;;;3.80;3.50;;;;;;;17.79;52.28;101600.97;5017445;28;20029;-77
2023/06/15 00:16:45;;;;;;;3.80;3.50;;;;;;;17.76;52.50;101611.94;5027285;28;20097;-72
2023/06/15 00:19:11;;;;;;;4.13;3.25;;;;;;;17.74;53.04;101609.38;5031568;28;20029;-76
2023/06/15 00:21:40;;;;;;;3.85;3.47;;;;;;;17.78;52.68;101607.34;5026080;28;20039;-76
2023/06/15 00:24:06;;;;;;;3.72;3.33;;;;;;;17.70;53.04;101607.81;5028644;28;20045;-73
2023/06/15 00:26:32;;;;;;;3.60;3.30;;;;;;;17.59;53.62;101603.16;5025831;28;20136;-72
2023/06/15 00:28:57;;;;;;;3.80;3.50;;;;;;;17.60;53.52;101604.91;5009946;28;20093;-74
2023/06/15 00:31:22;;;;;;;3.85;3.50;;;;;;;17.56;53.18;101614.16;5025906;28;20424;-76
2023/06/15 00:33:48;;;;;;;3.60;3.17;;;;;;;17.52;53.77;101615.34;5025520;28;20021;-71
2023/06/15 00:36:13;;;;;;;3.88;3.50;;;;;;;17.40;54.37;101614.34;5025226;28;20033;-75
2023/06/15 00:38:38;;;;;;;3.88;3.42;;;;;;;17.43;54.32;101614.13;5032785;28;20136;-73
2023/06/15 00:41:04;;;;;;;4.65;3.92;;;;;;;17.45;54.39;101621.22;5027245;28;20036;-74
2023/06/15 00:43:29;;;;;;;5.85;3.50;;;;;;;17.43;54.61;101615.94;5034605;28;20083;-78
2023/06/15 00:45:55;;;;;;;4.35;3.47;;;;;;;17.35;54.52;101616.47;5029402;28;20225;-76
2023/06/15 00:48:20;;;;;;;4.45;3.50;;;;;;;17.35;54.58;101619.16;5033147;28;20040;-74
2023/06/15 00:50:46;;;;;;;6.97;3.60;;;;;;;17.39;54.16;101620.69;5020211;28;20143;-74
2023/06/15 00:53:12;;;;;;;4.63;4.13;;;;;;;17.30;54.76;101628.50;5028329;28;20056;-76
2023/06/15 00:55:40;;;;;;;4.82;3.65;;;;;;;17.26;54.82;101621.59;5025060;28;20030;-77
2023/06/15 00:58:09;;;;;;;5.40;3.78;;;;;;;17.18;55.44;101614.06;5007721;28;20054;-73
2023/06/15 01:00:37;;;;;;;5.05;3.65;;;;;;;17.23;55.61;101625.38;5015789;28;20029;-72
2023/06/15 01:03:04;;;;;;;4.47;3.80;;;;;;;17.07;55.52;101619.28;5007561;28;20056;-75
2023/06/15 01:05:34;;;;;;;5.15;3.90;;;;;;;16.99;56.24;101622.47;5023809;28;20498;-76
2023/06/15 01:08:04;;;;;;;4.45;3.67;;;;;;;16.95;56.76;101620.06;5005134;28;20538;-73
2023/06/15 01:10:31;;;;;;;4.30;3.90;;;;;;;16.97;56.61;101618.13;5014681;28;20018;-75
2023/06/15 01:12:59;;;;;;;3.97;3.67;;;;;;;16.91;56.82;101617.56;5023003;28;20038;-72
2023/06/15 01:15:24;;;;;;;5.97;4.30;;;;;;;16.93;56.76;101623.72;5024563;28;20091;-74
2023/06/15 01:17:54;;;;;;;4.32;4.00;;;;;;;16.89;56.73;101626.72;5023425;28;20041;-75
2023/06/15 01:20:27;;;;;;;5.85;4.07;;;;;;;16.88;57.27;101619.59;4990952;28;20037;-74
2023/06/15 01:23:25;;;;;;;4.47;4.07;;;;;;;16.88;56.72;101625.84;5021177;28;20414;-77
2023/06/15 01:26:07;;;;;;;5.88;4.05;;;;;;;16.85;56.64;101626.06;5023949;28;20053;-75
2023/06/15 01:28:44;;;;;;;5.00;4.10;;;;;;;16.84;57.29;101629.69;5020955;28;20056;-73
2023/06/15 01:31:12;;;;;;;5.60;4.05;;;;;;;16.77;57.76;101628.38;5026473;28;20030;-71
2023/06/15 01:33:48;;;;;;;4.95;3.97;;;;;;;16.73;57.45;101629.53;5027784;28;20029;-77
2023/06/15 01:36:14;;;;;;;5.82;4.03;;;;;;;16.70;58.32;101632.38;5018819;28;20029;-76
2023/06/15 01:38:41;;;;;;;4.53;3.92;;;;;;;16.63;58.77;101636.41;5025059;28;20029;-78
2023/06/15 01:41:08;;;;;;;4.25;3.95;;;;;;;16.52;59.21;101628.19;5023709;28;20033;-71
2023/06/15 01:43:36;;;;;;;4.75;4.18;;;;;;;16.48;59.31;101624.81;5023551;28;20123;-73
2023/06/15 01:46:03;;;;;;;4.38;3.97;;;;;;;16.48;59.65;101635.56;5020789;28;20362;-76
2023/06/15 01:48:29;;;;;;;4.50;4.10;;;;;;;16.24;59.84;101629.03;5023546;28;20033;-77
2023/06/15 01:50:55;;;;;;;5.05;4.38;;;;;;;16.35;59.93;101638.16;5021608;28;20029;-76
2023/06/15 01:53:21;;;;;;;4.78;4.28;;;;;;;16.23;60.49;101635.38;5021316;28;20484;-73
2023/06/15 01:55:46;;;;;;;5.70;5.00;;;;;;;16.10;60.86;101636.13;5021553;28;20380;-72
2023/06/15 01:58:15;;;;;;;9.07;4.80;;;;;;;16.23;60.90;101636.25;5021408;28;20460;-73
2023/06/15 02:00:44;;;;;;;6.05;4.57;;;;;;;16.16;61.15;101637.56;5022746;28;20124;-74
2023/06/15 02:03:11;;;;;;;5.20;4.80;;;;;;;16.15;61.29;101631.34;5023355;28;20116;-73
2023/06/15 02:05:39;;;;;;;5.10;4.40;;;;;;;16.12;61.13;101628.84;5018524;28;20041;-69
2023/06/15 02:08:10;;;;;;;4.75;4.35;;;;;;;16.09;61.48;101634.41;5024353;28;20219;-75
2023/06/15 02:10:39;;;;;;;5.18;4.68;;;;;;;16.08;61.63;101634.50;5023800;28;20029;-70
2023/06/15 02:13:11;;;;;;;5.03;4.53;;;;;;;16.06;61.70;101628.38;5029346;28;20021;-76
2023/06/15 02:15:37;;;;;;;5.43;4.50;;;;;;;15.91;62.35;101636.38;5030434;28;20029;-73
2023/06/15 02:18:11;;;;;;;7.47;5.22;;;;;;;15.90;62.13;101641.84;5027477;28;20180;-72
2023/06/15 02:20:38;;;;;;;7.88;5.07;;;;;;;15.72;62.94;101637.56;5023849;28;20092;-73
2023/06/15 02:23:04;;;;;;;5.72;5.10;;;;;;;15.78;62.69;101640.75;5022720;28;20508;-73
2023/06/15 02:25:30;;;;;;;5.63;5.13;;;;;;;15.73;62.86;101644.69;5022176;28;20316;-73
2023/06/15 02:27:56;;;;;;;7.18;5.38;;;;;;;15.73;62.62;101636.63;5022727;28;20025;-75
2023/06/15 02:30:24;;;;;;;5.93;5.32;;;;;;;15.75;62.56;101653.50;5021884;28;20094;-71
2023/06/15 02:32:52;;;;;;;6.78;5.90;;;;;;;15.71;63.13;101654.63;5022295;28;20522;-73
2023/06/15 02:35:18;;;;;;;6.25;5.43;;;;;;;15.72;63.41;101651.00;5025477;28;20033;-71
2023/06/15 02:37:44;;;;;;;7.13;6.20;;;;;;;15.72;63.17;101654.56;5019763;28;20396;-76
2023/06/15 02:40:10;;;;;;;6.63;5.93;;;;;;;15.67;63.40;101649.47;5018084;28;20025;-78
2023/06/15 02:42:39;;;;;;;7.78;6.15;;;;;;;15.63;63.42;101657.75;5007529;28;20040;-72
2023/06/15 02:45:07;;;;;;;7.00;5.93;;;;;;;15.61;63.59;101651.63;5025618;28;20029;-76
2023/06/15 02:47:35;;;;;;;6.35;5.75;;;;;;;15.57;64.18;101655.44;5005584;28;20053;-73
2023/06/15 02:50:00;;;;;;;5.95;5.45;;;;;;;15.58;64.30;101657.16;5024113;28;20468;-76
2023/06/15 02:52:26;;;;;;;6.78;6.13;;;;;;;15.60;64.05;101657.94;5028238;28;20140;-77
2023/06/15 02:54:52;;;;;;;6.82;6.20;;;;;;;15.64;64.24;101663.06;5029012;28;20056;-78
2023/06/15 02:57:17;;;;;;;5.80;5.20;;;;;;;15.67;63.67;101654.84;5026967;28;20048;-72
2023/06/15 02:59:44;;;;;;;6.43;5.82;;;;;;;15.61;64.38;101655.16;5029369;28;20040;-74
2023/06/15 03:02:10;;;;;;;6.05;5.55;;;;;;;15.51;64.40;101650.41;5022353;28;20583;-78
2023/06/15 03:04:44;;;;;;;6.70;6.07;;;;;;;15.49;64.69;101660.38;5026881;28;20476;-73
2023/06/15 03:07:20;;;;;;;6.97;6.28;;;;;;;15.52;64.35;101658.38;5030610;28;20120;-76
2023/06/15 03:09:50;;;;;;;7.07;6.38;;;;;;;15.52;64.77;101652.16;5029158;28;20025;-73
2023/06/15 03:12:17;;;;;;;6.60;5.95;;;;;;;15.50;64.85;101657.59;5027644;28;20141;-73
2023/06/15 03:14:44;;;;;;;6.72;5.80;;;;;;;15.47;65.30;101656.91;5024510;28;20044;-75
2023/06/15 03:17:12;;;;;;;6.93;5.70;;;;;;;15.44;65.35;101666.88;5018293;28;20052;-75
2023/06/15 03:19:41;;;;;;;5.68;5.25;;;;;;;15.45;65.38;101657.88;5026066;28;20060;-79
2023/06/15 03:22:10;;;;;;;6.00;5.38;;;;;;;15.34;66.88;101662.13;5029951;28;20041;-69
2023/06/15 03:24:39;;;;;;;5.78;5.28;;;;;;;15.29;66.45;101664.22;5024383;28;20032;-77
2023/06/15 03:27:06;;;;;;;7.80;5.65;;;;;;;15.22;66.94;101657.50;5016028;28;20148;-71
2023/06/15 03:29:36;;;;;;;6.43;4.97;;;;;;;15.23;66.82;101665.44;5022843;28;20180;-74
2023/06/15 03:32:10;;;;;;;6.13;5.50;;;;;;;15.21;67.02;101672.69;5033337;28;20033;-76
2023/06/15 03:34:39;;;;;;;6.63;5.43;;;;;;;15.18;67.18;101659.47;5026959;28;20026;-73
2023/06/15 03:37:07;;;;;;;6.85;5.90;;;;;;;15.08;67.54;101668.97;5026343;28;20195;-76
2023/06/15 03:39:33;;;;;;;8.15;6.15;;;;;;;15.05;67.84;101664.69;5026132;28;20415;-73
2023/06/15 03:41:58;;;;;;;6.07;5.47;;;;;;;14.98;68.58;101663.28;5026397;28;20036;-71
2023/06/15 03:44:24;;;;;;;6.07;5.47;;;;;;;14.99;68.76;101667.69;5025358;28;20018;-74
2023/06/15 03:46:49;;;;;;;6.32;5.72;;;;;;;14.97;69.05;101666.94;5025789;28;20021;-71
2023/06/15 03:49:15;;;;;;;8.23;6.03;;;;;;;14.92;68.80;101664.50;5023406;28;20033;-75
2023/06/15 03:51:40;;;;;;;11.18;5.90;;;;;;;14.99;68.92;101664.16;5025949;28;20452;-73
2023/06/15 03:54:06;;;;;;;8.48;6.25;;;;;;;14.92;69.55;101666.28;5021094;28;20398;-76
2023/06/15 03:56:31;;;;;;;44.60;10.07;;;;;;;14.98;69.66;101667.78;5026278;28;20041;-73
2023/06/15 03:58:57;;;;;;;47.42;10.48;;;;;;;14.93;69.68;101668.91;5025517;28;20114;-75
2023/06/15 04:01:24;;;;;;;35.38;9.27;;;;;;;14.93;69.85;101668.03;5026193;28;20081;-75
2023/06/15 04:03:50;;;;;;;35.50;8.90;;;;;;;14.97;69.74;101668.75;5025831;28;20060;-74
2023/06/15 04:06:16;;;;;;;19.80;7.30;;;;;;;15.01;69.44;101673.84;5025425;28;20025;-73
2023/06/15 04:08:42;;;;;;;14.60;6.95;;;;;;;14.97;69.89;101674.97;5025834;28;20162;-74
2023/06/15 04:11:10;;;;;;;7.78;6.68;;;;;;;15.01;69.08;101683.72;5011792;28;20113;-70
2023/06/15 04:13:35;;;;;;;7.22;6.63;;;;;;;15.12;68.79;101671.41;5026779;28;20143;-75
2023/06/15 04:16:01;;;;;;;15.23;7.55;;;;;;;15.09;69.51;101674.28;5018612;28;20488;-74
2023/06/15 04:18:26;;;;;;;10.75;6.85;;;;;;;15.10;69.39;101672.47;5016772;28;20204;-74
2023/06/15 04:20:52;;;;;;;9.00;7.10;;;;;;;15.19;68.51;101685.34;5016034;28;20187;-72
2023/06/15 04:23:17;;;;;;;7.78;6.95;;;;;;;15.26;68.45;101684.03;5019681;28;20351;-76
2023/06/15 04:25:43;;;;;;;7.78;7.03;;;;;;;15.28;68.88;101694.69;5018179;28;21455;-75
2023/06/15 04:28:11;;;;;;;8.07;7.30;;;;;;;15.31;68.34;101687.31;5016851;28;20144;-73
2023/06/15 04:30:45;;;;;;;8.70;7.75;;;;;;;15.25;68.52;101689.47;5020678;28;20044;-72
2023/06/15 04:33:13;;;;;;;;;;;;;;;15.36;66.59;101685.22;5000866;28;20022;-78
2023/06/15 04:35:45;;;;;;;9.15;7.85;;;;;;;15.31;68.20;101690.00;5017854;28;19925;-72
2023/06/15 04:38:12;;;;;;;8.70;7.55;;;;;;;15.31;68.25;101686.47;5023601;28;20025;-77
2023/06/15 04:40:39;;;;;;;8.60;7.85;;;;;;;15.32;68.28;101689.03;5025202;28;20506;-71
2023/06/15 04:43:04;;;;;;;9.18;7.55;;;;;;;15.35;68.44;101693.38;5018291;28;20037;-77
2023/06/15 04:45:30;;;;;;;8.55;7.75;;;;;;;15.45;68.58;101687.38;5025151;28;20420;-75
2023/06/15 04:47:55;;;;;;;9.68;8.63;;;;;;;15.41;68.19;101698.38;5028656;28;20515;-75
2023/06/15 04:50:21;;;;;;;8.65;7.75;;;;;;;15.53;68.10;101703.03;5023933;28;20029;-76
2023/06/15 04:52:48;;;;;;;9.13;8.23;;;;;;;15.51;68.14;101698.69;5007313;28;20022;-76
2023/06/15 04:55:14;;;;;;;10.70;8.85;;;;;;;15.58;68.20;101700.09;5023537;28;20093;-74
2023/06/15 04:57:39;;;;;;;9.32;8.48;;;;;;;15.75;67.96;101696.44;5022102;28;20659;-73
2023/06/15 05:00:11;;;;;;;9.10;8.30;;;;;;;15.88;67.72;101705.50;5021869;28;20515;-76
2023/06/15 05:02:36;;;;;;;8.55;7.88;;;;;;;15.89;67.61;101704.56;5023687;28;20029;-75
2023/06/15 05:05:02;;;;;;;10.07;8.43;;;;;;;16.02;66.75;101700.19;5023651;28;20408;-74
2023/06/15 05:07:27;;;;;;;10.13;9.02;;;;;;;16.08;67.25;101701.63;5024782;28;20562;-76
2023/06/15 05:09:53;;;;;;;9.43;8.52;;;;;;;16.19;66.68;101710.78;5025254;28;20056;-76
2023/06/15 05:12:18;;;;;;;9.63;8.73;;;;;;;16.26;67.00;101705.91;5023811;28;20513;-75
2023/06/15 05:14:43;;;;;;;11.82;9.57;;;;;;;16.35;66.22;101708.03;5023956;28;20025;-76
2023/06/15 05:17:09;;;;;;;10.07;8.93;;;;;;;16.47;66.61;101703.72;5021181;28;20029;-73
2023/06/15 05:19:34;;;;;;;9.60;8.73;;;;;;;16.51;66.04;101709.75;5022345;28;20036;-72
2023/06/15 05:22:01;;;;;;;10.27;8.73;;;;;;;16.66;65.88;101706.97;5021113;28;20125;-73
2023/06/15 05:24:26;;;;;;;10.35;9.35;;;;;;;16.74;66.09;101700.28;5027937;28;20017;-73
2023/06/15 05:26:52;;;;;;;9.48;8.55;;;;;;;16.83;65.16;101705.06;5030841;28;20050;-76
2023/06/15 05:29:17;;;;;;;9.43;8.43;;;;;;;16.96;65.00;101714.09;5028098;28;20067;-77
2023/06/15 05:31:43;;;;;;;9.88;8.80;;;;;;;17.06;64.83;101707.16;5027951;28;20499;-74
2023/06/15 05:34:08;;;;;;;10.20;9.20;;;;;;;17.12;64.46;101704.06;5007546;28;20018;-71
2023/06/15 05:36:34;;;;;;;11.27;8.85;;;;;;;17.27;64.47;101715.69;5024221;28;20109;-74
2023/06/15 05:39:00;;;;;;;11.15;8.60;;;;;;;17.39;63.75;101711.31;5033908;28;20056;-74
2023/06/15 05:41:25;;;;;;;11.43;9.20;;;;;;;17.53;63.59;101710.41;5025604;28;20112;-73
2023/06/15 05:43:51;;;;;;;9.95;8.73;;;;;;;17.69;63.35;101711.13;5024197;28;20116;-73
2023/06/15 05:46:16;;;;;;;11.85;9.07;;;;;;;17.84;62.78;101709.22;5022704;28;20053;-75
2023/06/15 05:48:41;;;;;;;10.93;9.10;;;;;;;17.88;61.41;101708.91;5005296;28;20052;-72
2023/06/15 05:51:07;;;;;;;11.52;8.57;;;;;;;18.07;61.48;101713.94;5016991;28;20659;-78
2023/06/15 05:53:32;;;;;;;12.00;9.35;;;;;;;18.07;60.49;101718.44;5017978;28;20108;-77
2023/06/15 05:55:57;;;;;;;10.45;8.75;;;;;;;18.29;61.17;101717.81;5019878;28;20562;-76
2023/06/15 05:58:23;;;;;;;10.18;9.18;;;;;;;18.37;59.80;101710.94;5017510;28;20439;-76
2023/06/15 06:00:48;;;;;;;12.60;9.52;;;;;;;18.53;60.37;101716.13;4994733;28;20117;-74
2023/06/15 06:03:13;;;;;;;8.93;8.02;;;;;;;18.77;60.31;101710.84;5023295;28;20061;-75
2023/06/15 06:05:39;;;;;;;14.05;9.77;;;;;;;18.86;58.43;101712.88;5017405;28;20421;-75
2023/06/15 06:08:04;;;;;;;10.65;9.45;;;;;;;19.06;58.19;101711.44;5023667;28;20368;-74
2023/06/15 06:10:30;;;;;;;10.48;8.85;;;;;;;19.28;57.90;101717.97;5024620;28;20037;-75
2023/06/15 06:12:55;;;;;;;13.30;8.80;;;;;;;19.43;57.33;101708.72;5024077;28;20024;-77
2023/06/15 06:15:21;;;;;;;12.18;9.18;;;;;;;19.70;57.49;101713.06;5018194;28;20025;-74
2023/06/15 06:17:46;;;;;;;9.40;7.55;;;;;;;20.02;56.69;101716.00;5022660;28;20033;-76
2023/06/15 06:20:12;;;;;;;12.57;8.65;;;;;;;20.24;55.91;101717.94;5016402;28;20391;-72
2023/06/15 06:22:37;;;;;;;10.93;8.55;;;;;;;20.39;54.70;101712.16;5024152;28;20478;-72
2023/06/15 06:25:03;;;;;;;10.90;8.27;;;;;;;20.53;54.52;101708.41;5026883;28;20111;-75
2023/06/15 06:27:29;;;;;;;11.82;8.48;;;;;;;20.74;52.91;101711.25;5005988;28;20033;-77
2023/06/15 06:29:55;;;;;;;14.88;8.20;;;;;;;20.96;52.27;101709.53;5019928;28;20028;-74
2023/06/15 06:32:20;;;;;;;13.73;8.48;;;;;;;21.10;51.65;101704.69;5024277;28;20037;-76
2023/06/15 06:34:46;;;;;;;11.23;7.60;;;;;;;21.28;51.50;101701.50;5012162;28;20029;-71
2023/06/15 06:37:11;;;;;;;11.73;7.82;;;;;;;21.53;50.90;101712.03;5016544;28;20068;-79
2023/06/15 06:39:37;;;;;;;10.82;7.80;;;;;;;21.79;49.72;101706.28;5023577;28;20013;-77
2023/06/15 06:42:02;;;;;;;8.82;7.28;;;;;;;21.82;48.78;101714.13;5020441;28;20650;-73
2023/06/15 06:44:28;;;;;;;11.35;8.02;;;;;;;21.92;48.06;101709.66;5023678;28;20036;-75
2023/06/15 06:46:53;;;;;;;10.13;8.25;;;;;;;22.03;48.31;101706.91;5019160;28;20029;-73
2023/06/15 06:49:19;;;;;;;13.48;8.55;;;;;;;22.17;47.13;101711.16;5024228;28;20029;-79
2023/06/15 06:51:44;;;;;;;10.25;8.20;;;;;;;22.25;47.04;101718.63;5024307;28;20395;-76
2023/06/15 06:54:09;;;;;;;13.65;8.27;;;;;;;22.46;47.15;101715.91;5023833;28;20499;-72
2023/06/15 06:56:35;;;;;;;10.50;7.88;;;;;;;22.60;47.15;101716.41;5023882;28;20083;-75
2023/06/15 06:59:00;;;;;;;11.00;8.45;;;;;;;22.65;46.00;101720.56;5016251;28;20035;-71
2023/06/15 07:01:26;;;;;;;9.63;8.18;;;;;;;22.92;45.01;101717.31;5011140;28;20033;-74
2023/06/15 07:03:51;;;;;;;12.07;8.07;;;;;;;22.96;45.03;101721.47;5017415;28;20120;-77
2023/06/15 07:06:17;;;;;;;11.70;8.48;;;;;;;22.96;44.60;101718.75;5018053;28;20029;-76
2023/06/15 07:08:42;;;;;;;10.18;7.50;;;;;;;23.17;45.51;101714.09;5018734;28;20037;-73
2023/06/15 07:11:11;;;;;;;10.35;8.07;;;;;;;23.32;44.61;101719.97;5019131;28;20344;-78
2023/06/15 07:13:36;;;;;;;11.88;8.00;;;;;;;23.33;44.30;101719.84;5013318;28;20141;-75
2023/06/15 07:16:02;;;;;;;9.32;7.15;;;;;;;23.54;43.56;101714.31;5017699;28;20033;-74
2023/06/15 07:18:27;;;;;;;9.43;7.07;;;;;;;23.75;40.90;101729.66;5020946;28;20053;-73
2023/06/15 07:20:55;;;;;;;9.38;7.32;;;;;;;23.90;41.57;101717.34;5024009;28;21511;-73
2023/06/15 07:23:22;;;;;;;8.88;7.75;;;;;;;24.13;40.74;101723.34;5024370;28;20033;-74
2023/06/15 07:25:48;;;;;;;10.43;8.00;;;;;;;24.27;40.47;101725.59;5017905;28;20041;-73
2023/06/15 07:28:14;;;;;;;8.95;7.38;;;;;;;24.46;40.47;101723.91;5017506;28;20100;-75
2023/06/15 07:30:40;;;;;;;12.20;7.28;;;;;;;25.00;40.44;101722.28;5019652;28;20037;-74
2023/06/15 07:33:05;;;;;;;7.53;6.35;;;;;;;25.25;38.65;101729.75;5017957;28;20032;-72
2023/06/15 07:35:31;;;;;;;6.25;5.63;;;;;;;25.45;37.05;101721.44;5014889;28;20293;-76
2023/06/15 07:37:57;;;;;;;7.60;5.57;;;;;;;25.82;36.15;101724.06;5021235;28;20036;-72
2023/06/15 07:40:22;;;;;;;9.52;5.72;;;;;;;26.27;35.54;101717.63;5017623;28;20533;-76
2023/06/15 07:42:47;;;;;;;6.03;5.00;;;;;;;26.59;35.03;101719.75;5018981;28;20025;-76
2023/06/15 07:45:13;;;;;;;6.45;4.63;;;;;;;27.17;33.55;101726.34;5017215;28;20040;-73
2023/06/15 07:47:43;;;;;;;6.97;4.57;;;;;;;27.31;32.58;101726.59;5014244;28;20032;-76
2023/06/15 07:50:10;;;;;;;7.15;4.32;;;;;;;27.56;31.93;101732.13;5019739;28;20083;-71
2023/06/15 07:52:35;;;;;;;5.57;4.00;;;;;;;28.23;31.73;101734.78;5017500;28;20037;-76
2023/06/15 07:55:00;;;;;;;4.93;4.32;;;;;;;28.85;30.74;101729.53;5019885;28;20091;-74
2023/06/15 07:57:29;;;;;;;6.97;4.38;;;;;;;29.36;30.23;101730.00;5019242;28;20024;-76
2023/06/15 07:59:54;;;;;;;5.78;4.53;;;;;;;29.60;29.53;101731.78;5015156;28;20502;-76
2023/06/15 08:02:20;;;;;;;5.72;3.55;;;;;;;29.78;27.67;101726.00;5020464;28;20181;-75
2023/06/15 08:04:45;;;;;;;6.53;4.43;;;;;;;30.02;27.86;101728.56;5020985;28;20033;-78
2023/06/15 08:07:12;;;;;;;5.68;3.85;;;;;;;30.14;27.15;101728.97;5018608;28;20068;-75
2023/06/15 08:09:37;;;;;;;6.47;3.58;;;;;;;30.56;27.36;101723.94;5016201;28;20017;-73
2023/06/15 08:12:03;;;;;;;5.57;3.85;;;;;;;30.84;25.61;101730.53;5015469;28;20031;-75
2023/06/15 08:14:28;;;;;;;5.82;3.45;;;;;;;31.17;26.34;101730.13;5020505;28;20206;-77
2023/06/15 08:16:54;;;;;;;6.13;3.65;;;;;;;31.43;24.98;101741.47;5016154;28;20037;-77
2023/06/15 08:19:19;;;;;;;4.00;3.33;;;;;;;31.43;23.64;101737.84;5023730;28;20403;-78
2023/06/15 08:21:45;;;;;;;7.82;3.70;;;;;;;31.75;24.15;101726.38;5023098;28;20122;-75
2023/06/15 08:24:11;;;;;;;5.57;3.22;;;;;;;32.32;23.82;101732.00;5023890;28;20028;-76
2023/06/15 08:26:37;;;;;;;5.93;3.58;;;;;;;32.19;22.86;101739.09;5025237;28;20057;-74
2023/06/15 08:29:02;;;;;;;4.75;3.33;;;;;;;32.36;23.08;101738.81;5000999;28;20037;-75
2023/06/15 08:31:29;;;;;;;6.00;3.40;;;;;;;32.18;22.54;101742.03;5022775;28;20105;-78
2023/06/15 08:33:54;;;;;;;3.70;3.33;;;;;;;32.34;22.60;101729.88;5018871;28;20189;-76
2023/06/15 08:36:20;;;;;;;7.00;3.28;;;;;;;32.94;22.66;101737.56;5016956;28;20389;-75
2023/06/15 08:38:45;;;;;;;6.97;3.08;;;;;;;33.45;22.23;101731.63;5000843;28;20178;-75
2023/06/15 08:41:11;;;;;;;6.35;3.42;;;;;;;33.87;21.96;101737.88;5021289;28;20325;-75
2023/06/15 08:43:41;;;;;;;4.82;3.30;;;;;;;33.89;22.01;101732.97;5020618;28;20017;-74
2023/06/15 08:46:07;;;;;;;6.50;3.22;;;;;;;33.87;21.05;101731.50;5018555;28;20025;-74
2023/06/15 08:48:32;;;;;;;4.22;3.28;;;;;;;33.98;20.82;101725.38;5025456;28;20039;-79
2023/06/15 08:50:58;;;;;;;4.07;3.20;;;;;;;34.44;20.91;101728.09;5017802;28;20595;-77
2023/06/15 08:53:27;;;;;;;7.07;3.42;;;;;;;34.42;21.19;101724.72;5016153;28;20021;-78
2023/06/15 08:55:52;;;;;;;4.65;3.13;;;;;;;35.18;20.17;101734.34;5023765;28;20041;-75
2023/06/15 08:58:17;;;;;;;7.00;3.22;;;;;;;35.73;20.02;101731.94;5024354;28;20107;-76
2023/06/15 09:00:43;;;;;;;5.82;3.28;;;;;;;36.07;19.59;101722.31;5002085;28;20028;-78
2023/06/15 09:03:13;;;;;;;4.25;3.00;;;;;;;36.40;20.42;101730.34;5018771;28;20028;-72
2023/06/15 09:05:39;;;;;;;5.80;3.28;;;;;;;36.51;18.64;101727.94;5020431;28;20157;-71
2023/06/15 09:08:05;;;;;;;7.60;3.55;;;;;;;36.71;18.43;101727.72;5001494;28;20132;-76
2023/06/15 09:10:35;;;;;;;4.88;3.30;;;;;;;36.32;19.00;101729.78;5012136;28;20026;-76
2023/06/15 09:13:01;;;;;;;5.90;3.45;;;;;;;36.61;18.61;101725.47;5020723;28;20629;-76
2023/06/15 09:15:28;;;;;;;6.00;3.40;;;;;;;36.72;18.73;101726.66;5014269;28;20026;-76
2023/06/15 09:18:02;;;;;;;5.68;3.53;;;;;;;36.64;18.57;101725.03;5012133;28;20026;-77
2023/06/15 09:20:30;;;;;;;4.03;3.45;;;;;;;36.30;17.99;101726.41;5018988;28;20030;-77
2023/06/15 09:23:05;;;;;;;4.15;3.55;;;;;;;35.19;19.23;101730.50;5021883;28;20047;-80
2023/06/15 09:25:31;;;;;;;5.22;3.38;;;;;;;35.37;19.96;101727.03;5027109;28;20135;-75
2023/06/15 09:28:07;;;;;;;33.25;6.75;;;;;;;35.73;20.11;101731.09;5018669;28;20025;-74
2023/06/15 09:30:36;;;;;;;4.30;3.40;;;;;;;33.45;20.89;101733.53;4991467;28;20037;-73
2023/06/15 09:33:10;;;;;;;4.80;3.13;;;;;;;31.97;23.10;101730.00;5022666;28;20541;-72
2023/06/15 09:35:36;;;;;;;3.85;3.17;;;;;;;32.84;22.29;101730.66;5020601;28;20147;-74
2023/06/15 09:38:01;;;;;;;4.25;3.30;;;;;;;34.50;20.36;101722.84;5022053;28;20500;-80
2023/06/15 09:40:28;;;;;;;5.75;3.75;;;;;;;35.70;19.36;101728.75;5019202;28;20037;-73
2023/06/15 09:42:57;;;;;;;6.63;3.38;;;;;;;36.67;17.86;101727.34;5018438;28;20269;-78
2023/06/15 09:45:23;;;;;;;5.78;3.40;;;;;;;37.88;17.84;101728.38;5019383;28;20037;-76
2023/06/15 09:47:54;;;;;;;5.32;3.40;;;;;;;38.23;16.21;101722.84;5020896;28;20021;-77
2023/06/15 09:50:26;;;;;;;6.55;3.60;;;;;;;37.32;17.35;101721.22;5020868;28;20112;-79
2023/06/15 09:52:52;;;;;;;7.88;4.20;;;;;;;37.85;16.33;101721.31;5020944;28;20025;-78
2023/06/15 09:55:18;;;;;;;4.93;3.60;;;;;;;36.59;17.26;101719.31;5018425;28;20444;-76
2023/06/15 09:57:44;;;;;;;7.03;3.60;;;;;;;35.81;18.39;101720.59;5023473;28;20037;-76
2023/06/15 10:00:12;;;;;;;5.65;3.47;;;;;;;36.27;17.84;101724.09;5002739;28;20156;-79
2023/06/15 10:02:41;;;;;;;6.55;3.60;;;;;;;35.87;18.86;101722.47;5024110;28;20049;-73
2023/06/15 10:05:13;;;;;;;7.28;3.40;;;;;;;36.09;18.17;101724.88;5019137;28;20130;-73
2023/06/15 10:07:45;;;;;;;3.75;3.35;;;;;;;35.84;17.90;101724.84;5022769;28;20040;-71
2023/06/15 10:10:12;;;;;;;4.83;3.43;;;;;;;34.55;19.49;101723.03;5014721;28;20510;-75
2023/06/15 10:12:42;;;;;;;5.18;3.47;;;;;;;34.30;19.49;101720.06;5013692;28;20022;-79
2023/06/15 10:18:16;;;;;;;4.35;3.55;;;;;;;32.75;20.63;101723.63;5020482;23;20327;-69
2023/06/15 10:20:41;;;;;;;4.55;3.47;;;;;;;33.30;20.27;101719.03;5016514;28;20447;-69
2023/06/15 10:23:13;;;;;;;3.90;3.13;;;;;;;35.80;18.42;101716.13;5019621;28;20061;-68
2023/06/15 10:25:42;;;;;;;5.78;3.83;;;;;;;37.59;17.75;101730.91;5018538;28;20087;-69
2023/06/15 10:28:51;;;;;;;4.15;3.60;;;;;;;39.13;16.67;101716.00;5022658;28;20040;-68
2023/06/15 10:31:33;;;;;;;6.15;3.50;;;;;;;39.93;15.30;101717.81;5055895;23;20052;-76
2023/06/15 10:34:15;;;;;;;4.53;3.35;;;;;;;38.57;16.46;101721.16;5048169;28;20307;-73
2023/06/15 10:36:58;;;;;;;4.57;3.42;;;;;;;37.73;16.33;101733.47;5039119;28;20040;-74
2023/06/15 10:39:44;;;;;;;5.05;3.50;;;;;;;39.01;16.19;101735.53;5042134;28;20046;-77
2023/06/15 10:42:12;;;;;;;5.78;3.42;;;;;;;39.66;15.10;101725.97;5038141;28;20028;-73
2023/06/15 10:44:37;;;;;;;5.32;3.40;;;;;;;40.07;14.54;101733.09;5036533;28;20025;-74
2023/06/15 10:47:20;;;;;;;5.60;3.63;;;;;;;40.99;14.92;101719.72;5038732;28;20103;-74
2023/06/15 10:49:50;;;;;;;3.95;3.60;;;;;;;41.45;13.94;101726.69;5040176;28;20033;-76
2023/06/15 10:52:15;;;;;;;5.45;3.63;;;;;;;42.18;13.55;101721.50;5039176;28;20460;-75
2023/06/15 10:54:41;;;;;;;6.22;3.20;;;;;;;42.89;13.42;101703.47;5031227;28;20027;-77
2023/06/15 10:57:06;;;;;;;4.25;3.30;;;;;;;43.13;12.77;101715.91;5032731;28;20120;-73
2023/06/15 10:59:54;;;;;;;3.85;3.35;;;;;;;43.20;13.17;101710.06;5021462;28;20047;-79
2023/06/15 11:02:28;;;;;;;5.10;3.38;;;;;;;43.22;13.65;101717.06;5038027;28;20031;-75
2023/06/15 11:05:01;;;;;;;4.95;3.72;;;;;;;42.71;12.97;101702.84;5035097;28;20036;-74
2023/06/15 11:07:35;;;;;;;3.75;3.28;;;;;;;42.13;13.68;101723.41;5036546;28;20104;-78
2023/06/15 11:10:02;;;;;;;4.80;3.60;;;;;;;42.30;13.69;101715.72;5036794;28;20052;-76
2023/06/15 11:12:41;;;;;;;6.13;3.70;;;;;;;42.42;14.05;101716.38;5038407;28;20104;-74
2023/06/15 11:15:09;;;;;;;6.88;3.70;;;;;;;41.78;12.38;101722.00;5023139;28;20158;-77
2023/06/15 11:17:58;;;;;;;6.88;3.97;;;;;;;42.74;13.46;101712.66;5039147;28;20318;-74
2023/06/15 11:20:51;;;;;;;6.07;3.30;;;;;;;42.97;13.50;101717.78;5026932;28;20468;-77
2023/06/15 11:23:19;;;;;;;5.40;3.78;;;;;;;41.91;12.75;101715.13;5027074;28;20117;-75
2023/06/15 11:25:50;;;;;;;5.53;3.70;;;;;;;41.54;13.58;101713.09;5041238;28;20029;-76
2023/06/15 11:28:21;;;;;;;3.90;3.47;;;;;;;42.19;12.62;101714.81;5042521;28;20561;-77
2023/06/15 11:30:46;;;;;;;6.07;3.83;;;;;;;41.86;13.40;101718.75;5035786;28;20076;-78